Time;durP1;ratioP1;P1;durP2;ratioP2;P2;SDS_P1;SDS_P2;PMS_P1;PMS_P2;Temp;Humidity;BMP_temperature;BMP_pressure;BME280_temperature;BME280_humidity;BME280_pressure;Samples;Min_cycle;Max_cycle;Signal;HPM_P1;HPM_P2
2021/03/17 00:02:19;;;;;;;8.23;3.83;;;;;;;;;;5141303;27;20049;-78
2021/03/17 00:05:05;;;;;;;8.80;3.30;;;;;;;;;;5141684;27;20064;-78
2021/03/17 00:07:50;;;;;;;10.57;3.65;;;;;;;;;;5141320;27;20096;-78
2021/03/17 00:10:39;;;;;;;9.52;4.25;;;;;;;;;;5141924;27;20129;-78
2021/03/17 00:13:26;;;;;;;8.43;3.70;;;;;;;;;;5142592;27;20073;-78
2021/03/17 00:16:10;;;;;;;7.72;3.75;;;;;;;;;;5142783;27;20123;-78
2021/03/17 00:18:55;;;;;;;8.85;4.10;;;;;;;;;;5143298;27;20560;-78
2021/03/17 00:21:39;;;;;;;10.65;3.55;;;;;;;;;;5143090;27;20125;-78
2021/03/17 00:24:23;;;;;;;10.63;3.40;;;;;;;;;;5143756;27;20109;-78
2021/03/17 00:27:08;;;;;;;7.95;3.13;;;;;;;;;;5144003;27;20070;-78
2021/03/17 00:29:52;;;;;;;7.63;3.22;;;;;;;;;;5145994;27;20118;-78
2021/03/17 00:32:36;;;;;;;9.88;3.60;;;;;;;;;;5145821;27;20580;-78
2021/03/17 00:35:20;;;;;;;7.25;3.03;;;;;;;;;;5145608;27;20114;-78
2021/03/17 00:38:05;;;;;;;9.73;3.78;;;;;;;;;;5144981;27;20111;-78
2021/03/17 00:40:49;;;;;;;8.63;3.08;;;;;;;;;;5144549;27;20046;-78
2021/03/17 00:43:33;;;;;;;9.60;4.68;;;;;;;;;;5144543;27;20457;-78
2021/03/17 00:46:17;;;;;;;7.55;3.30;;;;;;;;;;5124986;27;20405;-78
2021/03/17 00:48:44;;;;;;;14.07;4.68;;;;;;;;;;5118912;28;20513;-78
2021/03/17 00:51:20;;;;;;;;;;;;;;;;;;5119809;28;20103;-78
2021/03/17 00:54:04;;;;;;;9.75;4.20;;;;;;;;;;5119801;28;19923;-78
2021/03/17 00:56:30;;;;;;;11.75;4.28;;;;;;;;;;5101122;28;20035;-78
2021/03/17 00:58:55;;;;;;;13.45;3.80;;;;;;;;;;5118331;28;20035;-78
2021/03/17 01:01:21;;;;;;;6.13;3.10;;;;;;;;;;5116397;28;20481;-79
2021/03/17 01:03:46;;;;;;;12.32;3.35;;;;;;;;;;5115566;28;20044;-78
2021/03/17 01:06:12;;;;;;;8.68;3.22;;;;;;;;;;5117082;28;20039;-78
2021/03/17 01:08:37;;;;;;;11.52;3.10;;;;;;;;;;5137181;27;20035;-78
2021/03/17 01:11:02;;;;;;;7.22;3.05;;;;;;;;;;5119813;27;20098;-78
2021/03/17 01:13:28;;;;;;;9.68;3.50;;;;;;;;;;5138855;27;20035;-78
2021/03/17 01:15:53;;;;;;;6.90;3.97;;;;;;;;;;5138077;27;20054;-78
2021/03/17 01:18:19;;;;;;;12.02;4.68;;;;;;;;;;5137772;27;20410;-78
2021/03/17 01:20:44;;;;;;;18.70;6.82;;;;;;;;;;5135947;27;20404;-78
2021/03/17 01:23:10;;;;;;;19.75;7.45;;;;;;;;;;5134908;28;20484;-78
2021/03/17 01:25:43;;;;;;;13.73;6.85;;;;;;;;;;5135486;27;20031;-78
2021/03/17 01:28:10;;;;;;;14.20;6.13;;;;;;;;;;5135584;28;20031;-77
2021/03/17 01:30:56;;;;;;;11.65;6.22;;;;;;;;;;5135681;28;20507;-78
2021/03/17 01:33:29;;;;;;;11.93;6.40;;;;;;;;;;5135442;28;20531;-78
2021/03/17 01:35:55;;;;;;;11.77;6.38;;;;;;;;;;5135295;27;20083;-77
2021/03/17 01:38:22;;;;;;;12.02;4.15;;;;;;;;;;5135360;28;20034;-77
2021/03/17 01:40:48;;;;;;;14.63;4.43;;;;;;;;;;5135433;28;20039;-78
2021/03/17 01:43:14;;;;;;;12.38;3.50;;;;;;;;;;5134631;28;20472;-77
2021/03/17 01:45:42;;;;;;;7.40;3.90;;;;;;;;;;5135235;27;20043;-78
2021/03/17 01:48:08;;;;;;;7.72;3.50;;;;;;;;;;5134824;28;20031;-78
2021/03/17 01:50:38;;;;;;;8.52;3.50;;;;;;;;;;5116390;28;20126;-77
2021/03/17 01:53:06;;;;;;;13.68;3.63;;;;;;;;;;5121644;28;20039;-78
2021/03/17 01:55:32;;;;;;;9.85;3.38;;;;;;;;;;5114204;28;20084;-78
2021/03/17 01:57:57;;;;;;;9.70;3.65;;;;;;;;;;5114244;28;20468;-78
2021/03/17 02:00:23;;;;;;;17.08;4.78;;;;;;;;;;5114408;28;20035;-78
2021/03/17 02:02:51;;;;;;;13.18;4.95;;;;;;;;;;5114284;28;20042;-77
2021/03/17 02:05:20;;;;;;;14.70;6.93;;;;;;;;;;5113949;28;20040;-77
2021/03/17 02:07:45;;;;;;;11.48;6.45;;;;;;;;;;5127906;28;20058;-78
2021/03/17 02:10:16;;;;;;;10.05;5.18;;;;;;;;;;5133824;27;20484;-78
2021/03/17 02:12:45;;;;;;;12.13;5.32;;;;;;;;;;5137329;27;20045;-78
2021/03/17 02:15:29;;;;;;;10.15;4.00;;;;;;;;;;5119788;27;20027;-77
2021/03/17 02:17:59;;;;;;;9.15;4.40;;;;;;;;;;5137613;27;20034;-78
2021/03/17 02:20:30;;;;;;;10.18;4.47;;;;;;;;;;5138511;27;20110;-78
2021/03/17 02:23:05;;;;;;;16.20;5.50;;;;;;;;;;5138963;27;20039;-78
2021/03/17 02:25:42;;;;;;;10.45;4.88;;;;;;;;;;5139142;27;20411;-78
2021/03/17 02:28:49;;;;;;;21.25;4.82;;;;;;;;;;5139330;27;20064;-78
2021/03/17 02:31:49;;;;;;;13.07;5.05;;;;;;;;;;5138756;27;20031;-78
2021/03/17 02:34:21;;;;;;;12.73;4.82;;;;;;;;;;5119558;27;20508;-78
2021/03/17 02:36:57;;;;;;;10.57;5.80;;;;;;;;;;5137376;27;20038;-78
2021/03/17 02:39:28;;;;;;;13.55;5.03;;;;;;;;;;5137922;27;20445;-78
2021/03/17 02:42:09;;;;;;;13.75;4.13;;;;;;;;;;5137144;27;20056;-78
2021/03/17 02:44:41;;;;;;;10.27;4.63;;;;;;;;;;5137566;27;20494;-78
2021/03/17 02:47:07;;;;;;;7.95;4.18;;;;;;;;;;5137578;27;20430;-78
2021/03/17 02:49:37;;;;;;;12.80;5.00;;;;;;;;;;5119631;27;20102;-77
2021/03/17 02:52:04;;;;;;;11.10;4.55;;;;;;;;;;5137270;27;20027;-77
2021/03/17 02:54:31;;;;;;;9.73;4.68;;;;;;;;;;5137119;27;20125;-77
2021/03/17 02:57:26;;;;;;;11.85;4.93;;;;;;;;;;5137131;27;20035;-78
2021/03/17 02:59:53;;;;;;;11.40;3.95;;;;;;;;;;5134261;27;20152;-78
2021/03/17 03:02:20;;;;;;;7.90;4.18;;;;;;;;;;5119032;27;20494;-78
2021/03/17 03:04:45;;;;;;;10.27;4.35;;;;;;;;;;5137234;27;20030;-78
2021/03/17 03:07:12;;;;;;;12.93;4.68;;;;;;;;;;5136845;27;20042;-78
2021/03/17 03:09:38;;;;;;;13.23;4.18;;;;;;;;;;5118636;27;20087;-77
2021/03/17 03:12:05;;;;;;;8.85;4.80;;;;;;;;;;5136991;27;20030;-78
2021/03/17 03:14:30;;;;;;;13.23;4.43;;;;;;;;;;5137943;27;20500;-78
2021/03/17 03:16:58;;;;;;;11.50;4.93;;;;;;;;;;5138569;27;20039;-78
2021/03/17 03:19:28;;;;;;;18.17;4.43;;;;;;;;;;5102731;27;20027;-77
2021/03/17 03:21:55;;;;;;;13.70;3.80;;;;;;;;;;5139226;27;20042;-78
2021/03/17 03:24:21;;;;;;;11.02;3.70;;;;;;;;;;5136962;27;20031;-77
2021/03/17 03:26:50;;;;;;;13.75;3.80;;;;;;;;;;5136227;27;20038;-78
2021/03/17 03:29:16;;;;;;;10.45;3.08;;;;;;;;;;5136973;27;20536;-77
2021/03/17 03:31:42;;;;;;;18.35;5.50;;;;;;;;;;5141967;27;20066;-78
2021/03/17 03:34:08;;;;;;;17.42;3.40;;;;;;;;;;5139456;27;20037;-78
2021/03/17 03:36:33;;;;;;;10.73;3.90;;;;;;;;;;5137766;27;20080;-78
2021/03/17 03:39:00;;;;;;;14.18;3.67;;;;;;;;;;5136744;27;20018;-78
2021/03/17 03:41:27;;;;;;;12.82;4.15;;;;;;;;;;5118136;27;20038;-78
2021/03/17 03:43:52;;;;;;;16.63;4.82;;;;;;;;;;5117815;27;20039;-78
2021/03/17 03:46:18;;;;;;;11.63;4.65;;;;;;;;;;5137241;27;20057;-78
2021/03/17 03:48:43;;;;;;;13.85;3.75;;;;;;;;;;5143608;27;20062;-78
2021/03/17 03:51:09;;;;;;;14.25;3.70;;;;;;;;;;5111392;28;20043;-78
2021/03/17 03:53:45;;;;;;;12.45;4.45;;;;;;;;;;5117892;28;20084;-76
2021/03/17 03:56:23;;;;;;;11.55;4.25;;;;;;;;;;5115168;28;20036;-77
2021/03/17 03:59:09;;;;;;;8.10;3.47;;;;;;;;;;5114716;28;20027;-76
2021/03/17 04:01:51;;;;;;;15.57;3.58;;;;;;;;;;5114852;28;20392;-76
2021/03/17 04:04:19;;;;;;;18.23;4.28;;;;;;;;;;5115099;28;20051;-76
2021/03/17 04:06:50;;;;;;;10.73;4.45;;;;;;;;;;5114783;28;20047;-75
2021/03/17 04:09:26;;;;;;;13.40;4.70;;;;;;;;;;5114894;28;20031;-75
2021/03/17 04:11:56;;;;;;;14.32;4.07;;;;;;;;;;5115315;27;20027;-75
2021/03/17 04:14:23;;;;;;;12.80;4.15;;;;;;;;;;5116984;27;20043;-76
2021/03/17 04:16:51;;;;;;;13.93;4.38;;;;;;;;;;5135386;27;20801;-76
2021/03/17 04:19:17;;;;;;;9.23;5.10;;;;;;;;;;5135236;27;20477;-75
2021/03/17 04:21:43;;;;;;;13.48;4.82;;;;;;;;;;5099874;27;20476;-75
2021/03/17 04:24:09;;;;;;;14.50;4.43;;;;;;;;;;5116101;27;20111;-76
2021/03/17 04:26:35;;;;;;;10.40;4.40;;;;;;;;;;5135022;27;20035;-76
2021/03/17 04:29:03;;;;;;;12.15;4.10;;;;;;;;;;5135087;27;20103;-75
2021/03/17 04:31:30;;;;;;;14.55;4.03;;;;;;;;;;5135123;27;20088;-76
2021/03/17 04:33:56;;;;;;;14.00;3.90;;;;;;;;;;5134895;27;20027;-75
2021/03/17 04:36:23;;;;;;;9.25;3.50;;;;;;;;;;5134979;27;20038;-75
2021/03/17 04:38:50;;;;;;;22.10;5.80;;;;;;;;;;5135046;27;20031;-75
2021/03/17 04:41:16;;;;;;;11.75;4.47;;;;;;;;;;5135055;27;20502;-76
2021/03/17 04:43:43;;;;;;;12.45;4.55;;;;;;;;;;5134891;27;20031;-75
2021/03/17 04:46:10;;;;;;;15.20;4.57;;;;;;;;;;5134327;27;20061;-75
2021/03/17 04:48:37;;;;;;;13.35;5.68;;;;;;;;;;5134723;27;20035;-75
2021/03/17 04:51:04;;;;;;;11.45;4.75;;;;;;;;;;5116028;27;20031;-76
2021/03/17 04:53:30;;;;;;;12.45;4.10;;;;;;;;;;5134649;27;20035;-75
2021/03/17 04:55:55;;;;;;;14.75;5.32;;;;;;;;;;5134820;27;20091;-76
2021/03/17 04:58:23;;;;;;;12.85;4.40;;;;;;;;;;5134776;27;20031;-75
2021/03/17 05:00:49;;;;;;;12.40;4.65;;;;;;;;;;5134362;27;20122;-75
2021/03/17 05:03:19;;;;;;;12.25;5.13;;;;;;;;;;5134642;27;20059;-76
2021/03/17 05:05:48;;;;;;;12.18;4.10;;;;;;;;;;5134629;27;20031;-75
2021/03/17 05:08:16;;;;;;;18.45;5.20;;;;;;;;;;5134432;27;20099;-75
2021/03/17 05:10:44;;;;;;;18.13;5.47;;;;;;;;;;5134325;27;20084;-76
2021/03/17 05:13:11;;;;;;;13.50;5.25;;;;;;;;;;5134571;27;20035;-76
2021/03/17 05:15:39;;;;;;;10.80;4.25;;;;;;;;;;5116022;28;20046;-76
2021/03/17 05:18:06;;;;;;;13.57;4.65;;;;;;;;;;5134418;27;20031;-76
2021/03/17 05:20:33;;;;;;;16.33;5.07;;;;;;;;;;5134325;27;20037;-76
2021/03/17 05:23:00;;;;;;;20.73;6.35;;;;;;;;;;5134140;27;20039;-75
2021/03/17 05:25:26;;;;;;;14.60;4.38;;;;;;;;;;5133475;27;20031;-76
2021/03/17 05:28:04;;;;;;;12.65;4.38;;;;;;;;;;5134313;28;20469;-75
2021/03/17 05:30:31;;;;;;;18.25;6.18;;;;;;;;;;5134151;28;20047;-76
2021/03/17 05:33:00;;;;;;;19.00;5.35;;;;;;;;;;5134315;28;20087;-75
2021/03/17 05:35:25;;;;;;;19.75;4.53;;;;;;;;;;5134019;27;20035;-75
2021/03/17 05:37:51;;;;;;;15.70;5.18;;;;;;;;;;5115743;28;20034;-75
2021/03/17 05:40:16;;;;;;;11.48;4.15;;;;;;;;;;5134208;28;20070;-75
2021/03/17 05:42:43;;;;;;;14.52;4.72;;;;;;;;;;5134186;28;20027;-76
2021/03/17 05:45:15;;;;;;;12.90;4.88;;;;;;;;;;5133906;27;20152;-76
2021/03/17 05:47:48;;;;;;;15.00;6.38;;;;;;;;;;5137902;27;20042;-75
2021/03/17 05:50:16;;;;;;;19.30;5.47;;;;;;;;;;5138383;27;20110;-75
2021/03/17 05:52:42;;;;;;;12.27;5.05;;;;;;;;;;5138110;27;20499;-75
2021/03/17 05:55:10;;;;;;;13.25;4.28;;;;;;;;;;5137282;27;20023;-76
2021/03/17 05:57:37;;;;;;;11.63;4.70;;;;;;;;;;5119640;27;20035;-75
2021/03/17 06:00:11;;;;;;;17.52;5.45;;;;;;;;;;5137881;27;20035;-75
2021/03/17 06:02:38;;;;;;;6.47;3.80;;;;;;;;;;5137050;27;20465;-75
2021/03/17 06:05:05;;;;;;;16.48;5.35;;;;;;;;;;5137620;27;20106;-75
2021/03/17 06:07:37;;;;;;;11.18;4.53;;;;;;;;;;5137587;27;20042;-75
2021/03/17 06:10:02;;;;;;;15.13;5.43;;;;;;;;;;5138016;27;20031;-75
2021/03/17 06:12:33;;;;;;;12.88;4.93;;;;;;;;;;5137898;27;20099;-76
2021/03/17 06:15:00;;;;;;;11.85;4.68;;;;;;;;;;5137772;27;20041;-75
2021/03/17 06:17:28;;;;;;;12.68;5.25;;;;;;;;;;5119179;27;20027;-75
2021/03/17 06:20:06;;;;;;;11.65;5.15;;;;;;;;;;5137764;27;20047;-75
2021/03/17 06:22:34;;;;;;;14.13;5.65;;;;;;;;;;5136902;27;20063;-75
2021/03/17 06:25:06;;;;;;;12.63;5.68;;;;;;;;;;5137716;27;20027;-75
2021/03/17 06:27:35;;;;;;;12.55;6.22;;;;;;;;;;5137543;27;20385;-75
2021/03/17 06:30:05;;;;;;;14.23;5.80;;;;;;;;;;5137464;27;20476;-76
2021/03/17 06:32:32;;;;;;;24.17;6.65;;;;;;;;;;5138124;27;20035;-79
2021/03/17 06:34:58;;;;;;;10.70;5.70;;;;;;;;;;5138238;27;20053;-76
2021/03/17 06:37:37;;;;;;;9.13;5.93;;;;;;;;;;5137284;27;20026;-76
2021/03/17 06:40:04;;;;;;;20.85;6.63;;;;;;;;;;5137457;27;20027;-76
2021/03/17 06:42:40;;;;;;;14.73;5.93;;;;;;;;;;5137222;27;20035;-76
2021/03/17 06:45:08;;;;;;;14.00;6.28;;;;;;;;;;5118686;27;20160;-77
2021/03/17 06:47:34;;;;;;;12.50;5.78;;;;;;;;;;5136402;27;20465;-76
2021/03/17 06:50:07;;;;;;;12.77;5.93;;;;;;;;;;5118818;27;20046;-76
2021/03/17 06:52:37;;;;;;;14.88;6.15;;;;;;;;;;5137006;27;20035;-76
2021/03/17 06:55:08;;;;;;;13.23;4.93;;;;;;;;;;5136901;27;20035;-75
2021/03/17 06:57:34;;;;;;;14.10;5.00;;;;;;;;;;5117673;27;20028;-76
2021/03/17 07:00:27;;;;;;;17.73;6.80;;;;;;;;;;5136976;27;20127;-76
2021/03/17 07:03:03;;;;;;;10.63;4.40;;;;;;;;;;5136775;27;20031;-75
2021/03/17 07:05:51;;;;;;;13.30;5.00;;;;;;;;;;5136106;27;20062;-76
2021/03/17 07:08:30;;;;;;;14.70;5.60;;;;;;;;;;5136728;27;20041;-77
2021/03/17 07:11:00;;;;;;;10.88;5.13;;;;;;;;;;5135821;27;20023;-76
2021/03/17 07:13:28;;;;;;;11.27;4.88;;;;;;;;;;5136359;27;20031;-76
2021/03/17 07:15:55;;;;;;;14.63;5.18;;;;;;;;;;5117777;27;20491;-75
2021/03/17 07:18:23;;;;;;;17.25;5.35;;;;;;;;;;5136132;27;20035;-74
2021/03/17 07:20:52;;;;;;;10.95;4.97;;;;;;;;;;5116031;28;20054;-74
2021/03/17 07:23:36;;;;;;;11.38;5.00;;;;;;;;;;5098334;28;20462;-76
2021/03/17 07:26:12;;;;;;;12.07;5.80;;;;;;;;;;5097896;28;20038;-76
2021/03/17 07:28:46;;;;;;;;;;;;;;;;;;5116314;28;20035;-76
2021/03/17 07:31:20;;;;;;;11.80;5.25;;;;;;;;;;5115521;28;20264;-76
2021/03/17 07:33:46;;;;;;;15.65;5.53;;;;;;;;;;5115599;28;20028;-76
2021/03/17 07:36:28;;;;;;;15.98;6.35;;;;;;;;;;5097284;28;20119;-75
2021/03/17 07:38:55;;;;;;;15.35;6.03;;;;;;;;;;5115612;28;20485;-75
2021/03/17 07:41:21;;;;;;;17.30;5.85;;;;;;;;;;5114959;28;20027;-76
2021/03/17 07:43:48;;;;;;;12.95;5.72;;;;;;;;;;5115827;28;20485;-75
2021/03/17 07:46:13;;;;;;;11.05;5.60;;;;;;;;;;5115200;28;20043;-77
2021/03/17 07:48:40;;;;;;;11.48;4.88;;;;;;;;;;5115299;28;20038;-76
2021/03/17 07:51:05;;;;;;;12.07;5.10;;;;;;;;;;5115591;28;20035;-77
2021/03/17 07:53:35;;;;;;;10.68;5.50;;;;;;;;;;5116194;28;20023;-78
2021/03/17 07:56:01;;;;;;;15.50;5.45;;;;;;;;;;5124571;27;20548;-76
2021/03/17 07:58:27;;;;;;;21.35;5.82;;;;;;;;;;5136613;27;20500;-76
2021/03/17 08:00:53;;;;;;;16.38;5.22;;;;;;;;;;5117506;27;20034;-78
2021/03/17 08:03:20;;;;;;;12.85;5.80;;;;;;;;;;5140909;27;20050;-80
2021/03/17 08:05:46;;;;;;;10.48;5.78;;;;;;;;;;5139862;27;20046;-80
2021/03/17 08:08:13;;;;;;;13.05;6.72;;;;;;;;;;5138717;27;20034;-78
2021/03/17 08:10:42;;;;;;;16.30;4.97;;;;;;;;;;5138089;27;20023;-77
2021/03/17 08:13:08;;;;;;;11.13;5.40;;;;;;;;;;5135859;27;20481;-77
2021/03/17 08:15:36;;;;;;;12.90;5.35;;;;;;;;;;5136576;27;20042;-78
2021/03/17 08:18:02;;;;;;;17.73;4.85;;;;;;;;;;5119751;27;20042;-78
2021/03/17 08:20:28;;;;;;;10.75;4.70;;;;;;;;;;5136536;27;20047;-77
2021/03/17 08:22:57;;;;;;;10.63;4.20;;;;;;;;;;5117220;27;20027;-76
2021/03/17 08:25:45;;;;;;;11.70;5.32;;;;;;;;;;5135321;27;20092;-75
2021/03/17 08:28:25;;;;;;;10.65;4.25;;;;;;;;;;5135167;27;20031;-76
2021/03/17 08:30:53;;;;;;;12.57;5.15;;;;;;;;;;5135072;27;20092;-75
2021/03/17 08:33:35;;;;;;;8.40;4.00;;;;;;;;;;5135337;27;20045;-76
2021/03/17 08:36:02;;;;;;;13.10;3.83;;;;;;;;;;5135195;27;20475;-77
2021/03/17 08:38:52;;;;;;;9.50;3.97;;;;;;;;;;5134963;27;20035;-78
2021/03/17 08:41:43;;;;;;;11.95;4.22;;;;;;;;;;5134690;27;20035;-77
2021/03/17 08:44:18;;;;;;;12.43;4.53;;;;;;;;;;5139809;27;20118;-79
2021/03/17 08:46:44;;;;;;;10.45;3.55;;;;;;;;;;5135483;27;20042;-78
2021/03/17 08:49:14;;;;;;;10.27;3.67;;;;;;;;;;5129718;27;20035;-77
2021/03/17 08:51:46;;;;;;;11.40;4.13;;;;;;;;;;5114224;28;20043;-78
2021/03/17 08:54:32;;;;;;;9.35;4.03;;;;;;;;;;5114235;28;20032;-77
2021/03/17 08:57:02;;;;;;;8.45;3.70;;;;;;;;;;5115746;28;20042;-78
2021/03/17 08:59:41;;;;;;;9.00;3.58;;;;;;;;;;5102089;28;20039;-78
2021/03/17 09:02:24;;;;;;;10.40;4.05;;;;;;;;;;5118324;28;20389;-78
2021/03/17 09:04:51;;;;;;;7.90;3.75;;;;;;;;;;5116136;28;20059;-78
2021/03/17 09:07:18;;;;;;;7.97;2.65;;;;;;;;;;5115034;28;20039;-78
2021/03/17 09:09:51;;;;;;;6.57;2.67;;;;;;;;;;5116152;28;20411;-77
2021/03/17 09:12:42;;;;;;;12.00;3.40;;;;;;;;;;5118546;28;20036;-77
2021/03/17 09:15:13;;;;;;;7.15;3.00;;;;;;;;;;5115502;28;20035;-78
2021/03/17 09:17:53;;;;;;;7.95;2.50;;;;;;;;;;5113722;28;20074;-78
2021/03/17 09:20:30;;;;;;;9.50;2.10;;;;;;;;;;5130551;27;20434;-77
2021/03/17 09:22:55;;;;;;;6.60;2.00;;;;;;;;;;5134934;27;20031;-77
2021/03/17 09:25:25;;;;;;;8.55;2.13;;;;;;;;;;5135153;27;20099;-76
2021/03/17 09:28:03;;;;;;;7.18;2.28;;;;;;;;;;5116952;28;20062;-76
2021/03/17 09:30:32;;;;;;;9.30;2.10;;;;;;;;;;5137737;28;20110;-80
2021/03/17 09:33:03;;;;;;;9.18;2.25;;;;;;;;;;5135712;28;20437;-76
2021/03/17 09:35:30;;;;;;;7.65;3.05;;;;;;;;;;5134996;27;20027;-77
2021/03/17 09:38:04;;;;;;;11.52;3.03;;;;;;;;;;5134189;28;20062;-77
2021/03/17 09:40:42;;;;;;;9.75;3.40;;;;;;;;;;5134195;28;20042;-77
2021/03/17 09:43:25;;;;;;;6.00;2.30;;;;;;;;;;5137949;28;20548;-78
2021/03/17 09:45:50;;;;;;;8.13;2.22;;;;;;;;;;5116110;28;20047;-77
2021/03/17 09:48:17;;;;;;;10.02;2.28;;;;;;;;;;5116036;28;20031;-75
2021/03/17 09:50:44;;;;;;;5.72;1.95;;;;;;;;;;5134278;28;20043;-75
2021/03/17 09:53:16;;;;;;;7.97;2.10;;;;;;;;;;5134156;28;20384;-76
2021/03/17 09:55:43;;;;;;;6.55;2.55;;;;;;;;;;5133971;27;20370;-75
2021/03/17 09:58:09;;;;;;;6.75;2.42;;;;;;;;;;5133929;28;20630;-75
2021/03/17 10:00:36;;;;;;;10.20;2.45;;;;;;;;;;5115627;28;20031;-75
2021/03/17 10:03:03;;;;;;;6.72;2.05;;;;;;;;;;5133996;28;20133;-75
2021/03/17 10:05:29;;;;;;;7.28;1.92;;;;;;;;;;5133840;27;20043;-75
2021/03/17 10:07:55;;;;;;;5.03;1.80;;;;;;;;;;5133938;28;20034;-75
2021/03/17 10:10:21;;;;;;;6.22;1.85;;;;;;;;;;5133987;28;20438;-75
2021/03/17 10:12:48;;;;;;;5.28;2.00;;;;;;;;;;5134289;28;20035;-78
2021/03/17 10:15:22;;;;;;;8.23;1.65;;;;;;;;;;5136851;27;20041;-78
2021/03/17 10:17:50;;;;;;;8.85;2.30;;;;;;;;;;5135487;28;20045;-77
2021/03/17 10:20:19;;;;;;;5.35;2.13;;;;;;;;;;5135295;28;20031;-77
2021/03/17 10:22:49;;;;;;;8.88;2.50;;;;;;;;;;5133719;28;20027;-76
2021/03/17 10:25:17;;;;;;;10.05;2.40;;;;;;;;;;5134078;27;20070;-76
2021/03/17 10:27:45;;;;;;;7.88;2.00;;;;;;;;;;5133775;28;20559;-76
2021/03/17 10:30:12;;;;;;;5.45;1.75;;;;;;;;;;5133205;28;20480;-77
2021/03/17 10:32:41;;;;;;;5.97;1.73;;;;;;;;;;5135438;27;20071;-76
2021/03/17 10:35:12;;;;;;;8.75;2.70;;;;;;;;;;5137300;27;20034;-77
2021/03/17 10:37:38;;;;;;;8.05;2.67;;;;;;;;;;5137370;27;20066;-77
2021/03/17 10:40:16;;;;;;;10.98;2.83;;;;;;;;;;5137246;27;20085;-78
2021/03/17 10:42:47;;;;;;;8.35;2.13;;;;;;;;;;5137457;27;20035;-75
2021/03/17 10:45:18;;;;;;;7.60;2.53;;;;;;;;;;5137211;27;20378;-77
2021/03/17 10:47:45;;;;;;;12.23;2.35;;;;;;;;;;5118834;27;20031;-77
2021/03/17 10:50:13;;;;;;;6.30;2.28;;;;;;;;;;5137057;27;20030;-77
2021/03/17 10:52:57;;;;;;;9.00;2.17;;;;;;;;;;5118755;27;20380;-77
2021/03/17 10:55:29;;;;;;;9.95;2.40;;;;;;;;;;5136892;27;20553;-77
2021/03/17 10:58:25;;;;;;;7.68;1.85;;;;;;;;;;5136197;27;20028;-77
2021/03/17 11:00:54;;;;;;;8.65;2.00;;;;;;;;;;5119847;27;20056;-75
2021/03/17 11:03:24;;;;;;;10.68;2.55;;;;;;;;;;5137045;27;20027;-76
2021/03/17 11:05:50;;;;;;;8.10;2.33;;;;;;;;;;5136928;27;20035;-76
2021/03/17 11:08:16;;;;;;;5.35;1.95;;;;;;;;;;5136797;27;20029;-76
2021/03/17 11:10:46;;;;;;;7.90;2.00;;;;;;;;;;5136704;27;20057;-76
2021/03/17 11:13:11;;;;;;;7.95;2.00;;;;;;;;;;5118538;27;20611;-78
2021/03/17 11:16:02;;;;;;;8.15;2.05;;;;;;;;;;5138064;27;20031;-77
2021/03/17 11:18:32;;;;;;;12.32;2.00;;;;;;;;;;5120931;27;20444;-78
2021/03/17 11:21:14;;;;;;;3.13;1.80;;;;;;;;;;5119742;27;20035;-77
2021/03/17 11:23:41;;;;;;;5.60;1.75;;;;;;;;;;5119327;27;20043;-78
2021/03/17 11:26:18;;;;;;;8.90;1.75;;;;;;;;;;5136633;27;20058;-78
2021/03/17 11:28:44;;;;;;;8.70;1.83;;;;;;;;;;5138106;27;20060;-78
2021/03/17 11:31:12;;;;;;;8.57;2.17;;;;;;;;;;5138080;27;20031;-77
2021/03/17 11:33:39;;;;;;;5.82;1.75;;;;;;;;;;5139457;27;20041;-77
2021/03/17 11:36:06;;;;;;;3.45;1.75;;;;;;;;;;5136620;27;20045;-78
2021/03/17 11:38:33;;;;;;;5.40;2.00;;;;;;;;;;5136387;27;20031;-77
2021/03/17 11:40:59;;;;;;;6.47;2.15;;;;;;;;;;5136275;27;20035;-78
2021/03/17 11:43:30;;;;;;;9.15;2.50;;;;;;;;;;5134897;27;20039;-78
2021/03/17 11:45:57;;;;;;;8.43;2.22;;;;;;;;;;5135807;27;20062;-78
2021/03/17 11:48:23;;;;;;;8.07;2.35;;;;;;;;;;5136249;27;20486;-78
2021/03/17 11:50:52;;;;;;;8.45;2.35;;;;;;;;;;5136162;27;20488;-78
2021/03/17 11:53:18;;;;;;;6.38;2.22;;;;;;;;;;5116907;27;20035;-78
2021/03/17 11:55:45;;;;;;;11.25;1.92;;;;;;;;;;5136008;27;20042;-78
2021/03/17 11:58:11;;;;;;;3.35;1.50;;;;;;;;;;5135967;27;20027;-78
2021/03/17 12:00:37;;;;;;;11.50;2.03;;;;;;;;;;5117475;27;20122;-78
2021/03/17 12:03:02;;;;;;;7.80;3.03;;;;;;;;;;5135124;27;20065;-78
2021/03/17 12:05:28;;;;;;;4.50;1.58;;;;;;;;;;5135960;27;20251;-77
2021/03/17 12:07:54;;;;;;;4.93;1.80;;;;;;;;;;5117428;27;20121;-78
2021/03/17 12:10:19;;;;;;;6.90;1.60;;;;;;;;;;5135922;27;20068;-78
2021/03/17 12:12:45;;;;;;;7.43;1.70;;;;;;;;;;5136183;27;20031;-77
2021/03/17 12:15:15;;;;;;;4.15;1.60;;;;;;;;;;5117289;27;20042;-78
2021/03/17 12:17:40;;;;;;;3.45;1.40;;;;;;;;;;5117172;27;20071;-78
2021/03/17 12:20:08;;;;;;;3.47;1.50;;;;;;;;;;5136145;27;20027;-77
2021/03/17 12:22:34;;;;;;;4.28;1.38;;;;;;;;;;5135366;27;20380;-78
2021/03/17 12:24:59;;;;;;;6.00;1.60;;;;;;;;;;5136592;27;20031;-78
2021/03/17 12:27:25;;;;;;;3.15;1.67;;;;;;;;;;5136758;27;20031;-78
2021/03/17 12:29:50;;;;;;;5.93;1.52;;;;;;;;;;5137347;27;20031;-78
2021/03/17 12:32:19;;;;;;;4.63;1.30;;;;;;;;;;5120478;27;20404;-78
2021/03/17 12:34:45;;;;;;;4.97;1.48;;;;;;;;;;5137914;27;20045;-78
2021/03/17 12:37:11;;;;;;;6.22;2.03;;;;;;;;;;5119964;27;20030;-78
2021/03/17 12:39:40;;;;;;;5.85;1.40;;;;;;;;;;5120491;27;20039;-78
2021/03/17 12:42:06;;;;;;;4.97;1.48;;;;;;;;;;5138439;27;20122;-78
2021/03/17 12:44:33;;;;;;;7.07;1.85;;;;;;;;;;5120378;27;20043;-78
2021/03/17 12:47:00;;;;;;;8.13;1.77;;;;;;;;;;5138187;27;20047;-78
2021/03/17 12:49:27;;;;;;;5.78;1.33;;;;;;;;;;5137767;27;20054;-78
2021/03/17 12:51:52;;;;;;;6.25;2.60;;;;;;;;;;5139168;27;20031;-78
2021/03/17 12:54:18;;;;;;;8.68;1.38;;;;;;;;;;5119894;27;20140;-78
2021/03/17 12:56:43;;;;;;;6.55;1.17;;;;;;;;;;5120073;27;20103;-78
2021/03/17 12:59:09;;;;;;;5.30;1.63;;;;;;;;;;5138961;27;20038;-78
2021/03/17 13:01:34;;;;;;;6.40;1.80;;;;;;;;;;5138188;27;20503;-78
2021/03/17 13:04:01;;;;;;;6.82;1.45;;;;;;;;;;5138165;27;20034;-78
2021/03/17 13:06:29;;;;;;;5.90;1.67;;;;;;;;;;5119780;27;20066;-78
2021/03/17 13:08:55;;;;;;;13.05;2.05;;;;;;;;;;5138826;27;20035;-78
2021/03/17 13:11:20;;;;;;;6.75;2.05;;;;;;;;;;5119527;27;20049;-82
2021/03/17 13:13:45;;;;;;;7.90;1.70;;;;;;;;;;5118658;27;20035;-78
2021/03/17 13:16:11;;;;;;;5.15;1.30;;;;;;;;;;5137473;27;20041;-80
2021/03/17 13:18:37;;;;;;;5.40;1.35;;;;;;;;;;5135670;27;20035;-76
2021/03/17 13:21:03;;;;;;;11.73;2.38;;;;;;;;;;5133390;27;20042;-76
2021/03/17 13:23:30;;;;;;;5.97;1.20;;;;;;;;;;5133929;27;20657;-77
2021/03/17 13:25:55;;;;;;;7.68;1.63;;;;;;;;;;5134177;27;20031;-77
2021/03/17 13:28:21;;;;;;;4.82;1.45;;;;;;;;;;5134376;27;20035;-77
2021/03/17 13:30:48;;;;;;;5.55;1.55;;;;;;;;;;5115867;27;20054;-77
2021/03/17 13:33:15;;;;;;;2.55;1.10;;;;;;;;;;5134289;27;20077;-77
2021/03/17 13:35:41;;;;;;;4.68;1.50;;;;;;;;;;5134336;27;20023;-77
2021/03/17 13:38:07;;;;;;;6.18;1.40;;;;;;;;;;5134314;28;20019;-77
2021/03/17 13:40:33;;;;;;;5.50;1.38;;;;;;;;;;5134437;28;20038;-77
2021/03/17 13:42:59;;;;;;;6.45;1.38;;;;;;;;;;5134252;28;20396;-75
2021/03/17 13:45:24;;;;;;;5.30;1.52;;;;;;;;;;5115423;28;20043;-77
2021/03/17 13:47:50;;;;;;;7.53;1.40;;;;;;;;;;5098783;28;20400;-77
2021/03/17 13:50:17;;;;;;;4.03;1.40;;;;;;;;;;5134229;28;20027;-77
2021/03/17 13:52:43;;;;;;;5.90;1.33;;;;;;;;;;5134285;28;20054;-77
2021/03/17 13:55:10;;;;;;;4.70;1.40;;;;;;;;;;5134094;27;20070;-77
2021/03/17 13:57:36;;;;;;;6.70;1.70;;;;;;;;;;5114959;28;20031;-74
2021/03/17 14:00:04;;;;;;;6.53;1.60;;;;;;;;;;5133880;28;20027;-76
2021/03/17 14:02:38;;;;;;;4.28;1.48;;;;;;;;;;5134079;28;20039;-77
2021/03/17 14:05:04;;;;;;;4.53;1.40;;;;;;;;;;5134021;27;20037;-77
2021/03/17 14:07:30;;;;;;;4.32;1.50;;;;;;;;;;5135344;27;20399;-77
2021/03/17 14:09:55;;;;;;;8.57;2.30;;;;;;;;;;5138126;27;20023;-77
2021/03/17 14:12:21;;;;;;;7.38;1.45;;;;;;;;;;5137712;27;20388;-77
2021/03/17 14:14:46;;;;;;;8.10;1.60;;;;;;;;;;5118731;27;20046;-77
2021/03/17 14:17:12;;;;;;;7.85;2.30;;;;;;;;;;5137965;27;20066;-77
2021/03/17 14:19:38;;;;;;;5.55;1.75;;;;;;;;;;5138029;27;20038;-76
2021/03/17 14:22:03;;;;;;;6.75;1.77;;;;;;;;;;5137819;27;20034;-77
2021/03/17 14:24:29;;;;;;;5.88;2.90;;;;;;;;;;5137302;27;20031;-77
2021/03/17 14:26:54;;;;;;;7.85;1.88;;;;;;;;;;5137250;27;20489;-77
2021/03/17 14:29:21;;;;;;;4.97;1.55;;;;;;;;;;5137600;27;20389;-76
2021/03/17 14:31:48;;;;;;;6.60;1.88;;;;;;;;;;5137476;27;20037;-77
2021/03/17 14:34:13;;;;;;;6.93;2.00;;;;;;;;;;5137623;27;20043;-77
2021/03/17 14:36:39;;;;;;;2.92;1.50;;;;;;;;;;5118940;27;20031;-75
2021/03/17 14:39:04;;;;;;;5.93;1.75;;;;;;;;;;5137412;27;20498;-76
2021/03/17 14:41:30;;;;;;;3.85;1.83;;;;;;;;;;5137371;27;20400;-77
2021/03/17 14:43:56;;;;;;;8.80;2.30;;;;;;;;;;5118809;27;20405;-76
2021/03/17 14:46:21;;;;;;;4.78;1.40;;;;;;;;;;5136894;27;20057;-77
2021/03/17 14:48:47;;;;;;;5.40;1.60;;;;;;;;;;5137213;27;20041;-77
2021/03/17 14:51:12;;;;;;;5.68;1.60;;;;;;;;;;5136989;27;20035;-77
2021/03/17 14:53:38;;;;;;;6.60;1.77;;;;;;;;;;5135399;27;20028;-77